Time;durP1;ratioP1;P1;durP2;ratioP2;P2;SDS_P1;SDS_P2;PMS_P1;PMS_P2;Temp;Humidity;BMP_temperature;BMP_pressure;BME280_temperature;BME280_humidity;BME280_pressure;Samples;Min_cycle;Max_cycle;Signal;HPM_P1;HPM_P2
2022/11/03 00:02:04;;;;;;;;;;;;;;;26.20;34.48;101179.88;4977919;28;1162;-47
2022/11/03 00:04:29;;;;;;;;;;;;;;;26.20;34.25;101173.63;4977248;28;1129;-48
2022/11/03 00:06:55;;;;;;;;;;;;;;;26.20;34.09;101165.53;4977522;28;1137;-46
2022/11/03 00:09:20;;;;;;;;;;;;;;;26.28;34.10;101170.94;4977557;28;1184;-44
2022/11/03 00:11:47;;;;;;;;;;;;;;;26.29;33.91;101181.56;4984188;28;955;-47
2022/11/03 00:14:13;;;;;;;;;;;;;;;26.29;34.15;101181.56;4977772;28;1172;-46
2022/11/03 00:16:39;;;;;;;;;;;;;;;26.25;34.21;101180.22;4977171;28;1910;-45
2022/11/03 00:19:04;;;;;;;;;;;;;;;26.24;34.46;101180.41;4976894;28;1192;-45
2022/11/03 00:21:30;;;;;;;;;;;;;;;26.29;33.96;101186.13;4977341;28;2542;-45
2022/11/03 00:23:55;;;;;;;;;;;;;;;26.35;33.85;101184.63;4981988;28;1034;-49
2022/11/03 00:26:24;;;;;;;;;;;;;;;26.35;33.89;101188.19;4977040;28;1232;-44
2022/11/03 00:28:53;;;;;;;;;;;;;;;26.30;33.84;101193.22;4976480;28;1113;-47
2022/11/03 00:31:19;;;;;;;;;;;;;;;26.33;33.82;101187.50;4976840;28;1153;-47
2022/11/03 00:33:45;;;;;;;;;;;;;;;26.31;33.67;101194.06;4976981;28;1181;-47
2022/11/03 00:36:11;;;;;;;;;;;;;;;26.29;34.15;101184.25;4980596;28;1969;-46
2022/11/03 00:38:36;;;;;;;;;;;;;;;26.33;33.75;101187.50;4976803;28;1198;-49
2022/11/03 00:41:02;;;;;;;;;;;;;;;26.35;33.71;101190.03;4976669;28;1141;-44
2022/11/03 00:43:28;;;;;;;;;;;;;;;26.37;33.92;101193.41;4977664;28;1182;-47
2022/11/03 00:45:53;;;;;;;;;;;;;;;26.39;33.84;101196.81;4985712;28;1831;-47
2022/11/03 00:48:34;;;;;;;;;;;;;;;26.32;33.71;101201.97;4978962;28;996;-46
2022/11/03 00:51:06;;;;;;;;;;;;;;;26.33;33.65;101202.84;4964473;28;2423;-46
2022/11/03 00:53:32;;;;;;;;;;;;;;;26.32;33.66;101193.91;4976792;28;1113;-45
2022/11/03 00:55:57;;;;;;;;;;;;;;;26.36;33.92;101195.25;4976846;28;1898;-46
2022/11/03 00:58:22;;;;;;;;;;;;;;;26.35;33.53;101198.13;4978903;28;1019;-45
2022/11/03 01:00:48;;;;;;;;;;;;;;;26.40;33.38;101201.16;4978862;28;1188;-48
2022/11/03 01:03:13;;;;;;;;;;;;;;;26.36;33.61;101199.84;4977077;28;1117;-43
2022/11/03 01:08:23;;;;;;;;;;;;;;;26.35;33.59;101206.22;4976685;28;1079;-43
2022/11/03 01:13:32;;;;;;;;;;;;;;;26.41;34.02;101209.09;4976765;28;1110;-43
2022/11/03 01:15:57;;;;;;;;;;;;;;;26.38;33.68;101200.50;4976360;28;1902;-42
2022/11/03 01:18:23;;;;;;;;;;;;;;;26.36;33.70;101202.53;4976802;28;1122;-49
2022/11/03 01:20:53;;;;;;;;;;;;;;;26.36;33.74;101211.44;4976520;28;2340;-44
2022/11/03 01:23:18;;;;;;;;;;;;;;;26.37;33.58;101207.75;4978179;28;1035;-44
2022/11/03 01:25:43;;;;;;;;;;;;;;;26.34;33.75;101215.34;4976603;28;1208;-42
2022/11/03 01:28:09;;;;;;;;;;;;;;;26.34;34.17;101205.38;4976552;28;1157;-47
2022/11/03 01:30:34;;;;;;;;;;;;;;;26.38;33.64;101203.19;4976429;28;1133;-46
2022/11/03 01:32:59;;;;;;;;;;;;;;;26.35;33.74;101203.53;4976560;28;1173;-44
2022/11/03 01:35:24;;;;;;;;;;;;;;;26.32;33.90;101207.38;4976351;28;1910;-48
2022/11/03 01:37:50;;;;;;;;;;;;;;;26.34;34.17;101207.25;4976512;28;1094;-46
2022/11/03 01:40:15;;;;;;;;;;;;;;;26.33;34.18;101211.78;4976255;28;1145;-50
2022/11/03 01:42:40;;;;;;;;;;;;;;;26.32;33.57;101217.31;4976273;28;1197;-47
2022/11/03 01:45:07;;;;;;;;;;;;;;;26.31;34.05;101216.47;4968462;28;1099;-47
2022/11/03 01:47:32;;;;;;;;;;;;;;;26.31;34.11;101219.16;4978902;28;1180;-50
2022/11/03 01:49:59;;;;;;;;;;;;;;;26.32;34.07;101215.47;4959284;28;1126;-46
2022/11/03 01:52:25;;;;;;;;;;;;;;;26.26;34.16;101216.09;4962205;28;1854;-44
2022/11/03 01:54:52;;;;;;;;;;;;;;;26.32;33.64;101218.16;4962883;28;1130;-46
2022/11/03 01:57:19;;;;;;;;;;;;;;;26.32;34.06;101220.00;4979688;28;1918;-42
2022/11/03 01:59:44;;;;;;;;;;;;;;;26.25;34.14;101222.53;4979849;28;1029;-46
2022/11/03 02:02:09;;;;;;;;;;;;;;;26.29;33.85;101224.72;4962545;28;1146;-43
2022/11/03 02:04:35;;;;;;;;;;;;;;;26.38;33.87;101228.31;4979641;28;1200;-43
2022/11/03 02:07:08;;;;;;;;;;;;;;;26.38;33.63;101222.06;4962515;28;1122;-42
2022/11/03 02:09:34;;;;;;;;;;;;;;;26.37;33.70;101231.19;4962699;28;1085;-46
2022/11/03 02:12:05;;;;;;;;;;;;;;;26.35;33.87;101225.09;4990611;28;1082;-44
2022/11/03 02:14:30;;;;;;;;;;;;;;;26.35;33.83;101227.78;4981234;28;1133;-47
2022/11/03 02:16:56;;;;;;;;;;;;;;;26.31;33.94;101226.44;4979127;28;1894;-48
2022/11/03 02:19:41;;;;;;;;;;;;;;;26.29;33.67;101222.03;4962197;28;1158;-47
2022/11/03 02:22:22;;;;;;;;;;;;;;;26.28;33.85;101230.28;4978324;28;2609;-47
2022/11/03 02:24:51;;;;;;;;;;;;;;;26.28;33.78;101228.44;4990720;28;1315;-44
2022/11/03 02:27:16;;;;;;;;;;;;;;;26.33;33.58;101236.06;4961938;28;1146;-44
2022/11/03 02:29:42;;;;;;;;;;;;;;;26.27;33.89;101237.53;4979693;28;1134;-47
2022/11/03 02:32:27;;;;;;;;;;;;;;;26.23;33.99;101238.88;4961548;28;1193;-47
2022/11/03 02:35:19;;;;;;;;;;;;;;;26.23;34.14;101244.25;4978729;28;1443;-49
2022/11/03 02:37:45;;;;;;;;;;;;;;;26.22;34.03;101245.28;4983171;28;1185;-48
2022/11/03 02:40:14;;;;;;;;;;;;;;;26.25;34.12;101249.50;4948186;28;1087;-45
2022/11/03 02:42:40;;;;;;;;;;;;;;;26.28;33.76;101246.47;4961454;28;1150;-49
2022/11/03 02:45:06;;;;;;;;;;;;;;;26.28;34.02;101252.72;4988631;28;1090;-46
2022/11/03 02:47:32;;;;;;;;;;;;;;;26.24;33.84;101251.34;4966466;28;1154;-46
2022/11/03 02:49:57;;;;;;;;;;;;;;;26.20;33.97;101260.78;4969349;28;1209;-47
2022/11/03 02:52:33;;;;;;;;;;;;;;;26.23;33.95;101262.28;4979025;28;2290;-48
2022/11/03 02:54:58;;;;;;;;;;;;;;;26.25;34.28;101268.38;4978997;28;1902;-45
2022/11/03 02:57:24;;;;;;;;;;;;;;;26.23;34.13;101268.53;4961570;28;1213;-45
2022/11/03 02:59:54;;;;;;;;;;;;;;;26.26;33.97;101270.91;4967878;28;1118;-47
2022/11/03 03:02:24;;;;;;;;;;;;;;;26.29;33.96;101267.03;4964227;28;1217;-44
2022/11/03 03:04:51;;;;;;;;;;;;;;;26.24;34.10;101251.34;4961418;28;1216;-47
2022/11/03 03:07:27;;;;;;;;;;;;;;;26.28;34.22;101262.66;4961380;28;1209;-44
2022/11/03 03:09:55;;;;;;;;;;;;;;;26.32;33.84;101255.94;4961552;28;1224;-44
2022/11/03 03:12:20;;;;;;;;;;;;;;;26.30;34.05;101268.72;4987770;28;1153;-47
2022/11/03 03:14:46;;;;;;;;;;;;;;;26.29;34.11;101270.56;4960973;28;1137;-46
2022/11/03 03:17:18;;;;;;;;;;;;;;;26.33;33.53;101276.50;4978689;28;1962;-44
2022/11/03 03:19:53;;;;;;;;;;;;;;;26.32;33.98;101280.19;4978607;28;1233;-48
2022/11/03 03:22:28;;;;;;;;;;;;;;;26.24;33.78;101256.72;4977988;28;2670;-44
2022/11/03 03:24:58;;;;;;;;;;;;;;;26.24;34.27;101272.09;4962674;28;939;-46
2022/11/03 03:27:24;;;;;;;;;;;;;;;26.27;34.04;101277.16;4961379;28;1173;-44
2022/11/03 03:29:54;;;;;;;;;;;;;;;26.30;34.07;101279.50;4960643;28;1146;-43
2022/11/03 03:32:20;;;;;;;;;;;;;;;26.33;33.56;101286.44;4961013;28;1209;-42
2022/11/03 03:34:46;;;;;;;;;;;;;;;26.26;34.19;101287.09;4960812;28;1214;-44
2022/11/03 03:37:11;;;;;;;;;;;;;;;26.33;34.19;101289.16;4966656;28;1977;-45
2022/11/03 03:39:37;;;;;;;;;;;;;;;26.35;33.86;101292.53;4961071;28;1182;-46
2022/11/03 03:42:02;;;;;;;;;;;;;;;26.32;33.72;101300.91;4960899;28;1161;-45
2022/11/03 03:44:28;;;;;;;;;;;;;;;26.28;34.25;101282.38;4986344;28;1094;-45
2022/11/03 03:47:00;;;;;;;;;;;;;;;26.27;33.95;101287.94;4960949;28;1189;-43
2022/11/03 03:49:26;;;;;;;;;;;;;;;26.25;34.10;101285.41;4968795;28;951;-45
2022/11/03 03:51:51;;;;;;;;;;;;;;;26.31;34.25;101291.97;4977378;28;2259;-43
2022/11/03 03:54:16;;;;;;;;;;;;;;;26.24;34.37;101281.00;4959966;28;1086;-44
2022/11/03 03:56:46;;;;;;;;;;;;;;;26.24;34.08;101275.59;4977737;28;1911;-43
2022/11/03 03:59:12;;;;;;;;;;;;;;;26.17;34.16;101274.59;4977387;28;1149;-46
2022/11/03 04:01:37;;;;;;;;;;;;;;;26.20;34.21;101273.41;4984266;28;1010;-47
2022/11/03 04:04:02;;;;;;;;;;;;;;;26.17;34.21;101271.91;4977989;28;1106;-50
2022/11/03 04:06:28;;;;;;;;;;;;;;;26.21;34.05;101270.53;4977863;28;1149;-48
2022/11/03 04:08:53;;;;;;;;;;;;;;;26.21;34.06;101277.81;4977542;28;1078;-47
2022/11/03 04:22:28;;;;;;;;;;;;;;;25.37;31.86;101285.47;4976919;28;2500;-39
2022/11/03 04:24:53;;;;;;;;;;;;;;;24.92;31.16;101288.13;4981424;28;883;-40
2022/11/03 04:27:22;;;;;;;;;;;;;;;25.00;31.75;101287.38;4976944;28;1110;-41
2022/11/03 04:29:47;;;;;;;;;;;;;;;24.86;31.70;101288.72;4977159;28;1169;-40
2022/11/03 04:32:14;;;;;;;;;;;;;;;24.86;31.28;101291.41;4959523;28;1181;-40
2022/11/03 04:34:39;;;;;;;;;;;;;;;24.67;31.68;101289.75;4977483;28;1177;-40
2022/11/03 04:37:05;;;;;;;;;;;;;;;24.76;31.07;101294.19;4980120;28;1922;-38
2022/11/03 04:39:30;;;;;;;;;;;;;;;24.57;31.29;101306.78;4959491;28;1130;-40
2022/11/03 04:41:55;;;;;;;;;;;;;;;24.54;31.28;101309.78;4959504;28;1106;-40
2022/11/03 04:44:21;;;;;;;;;;;;;;;24.69;30.91;101296.66;4976798;28;1153;-41
2022/11/03 04:46:46;;;;;;;;;;;;;;;24.61;31.08;101304.63;4977183;28;1193;-40
2022/11/03 04:49:13;;;;;;;;;;;;;;;24.60;30.86;101300.28;4981377;28;1015;-38
2022/11/03 04:51:39;;;;;;;;;;;;;;;24.40;30.38;101316.53;4959744;28;1841;-38
2022/11/03 04:54:30;;;;;;;;;;;;;;;24.49;30.95;101314.75;4959849;28;1122;-38
2022/11/03 04:56:56;;;;;;;;;;;;;;;24.25;31.23;101321.56;4974533;28;1918;-39
2022/11/03 04:59:21;;;;;;;;;;;;;;;24.05;31.70;101326.16;4976926;28;1220;-39
2022/11/03 05:01:46;;;;;;;;;;;;;;;24.19;32.11;101330.25;4976766;28;1278;-42
2022/11/03 05:04:12;;;;;;;;;;;;;;;24.68;30.59;101331.78;4976584;28;1106;-47
2022/11/03 05:06:38;;;;;;;;;;;;;;;25.09;30.32;101336.72;4976600;28;1017;-45
2022/11/03 05:09:16;;;;;;;;;;;;;;;25.59;29.74;101328.19;4976848;28;1127;-48
2022/11/03 05:11:43;;;;;;;;;;;;;;;25.37;30.51;101341.16;4959588;28;1181;-46
2022/11/03 05:14:19;;;;;;;;;;;;;;;25.55;30.54;101339.28;4977973;28;983;-47
2022/11/03 05:16:44;;;;;;;;;;;;;;;25.78;30.57;101349.56;4976367;28;1898;-46
2022/11/03 05:19:22;;;;;;;;;;;;;;;25.88;30.41;101357.53;4976520;28;1154;-47
2022/11/03 05:21:48;;;;;;;;;;;;;;;25.82;30.92;101362.72;4976599;28;2552;-47
2022/11/03 05:24:14;;;;;;;;;;;;;;;25.91;30.68;101364.44;4959194;28;1150;-46
2022/11/03 05:26:39;;;;;;;;;;;;;;;26.06;30.57;101377.34;4978320;28;1141;-47
2022/11/03 05:29:07;;;;;;;;;;;;;;;26.15;30.65;101379.06;4963222;28;1102;-47
2022/11/03 05:31:33;;;;;;;;;;;;;;;26.10;30.73;101370.59;4980388;28;1208;-46
2022/11/03 05:33:59;;;;;;;;;;;;;;;26.10;30.91;101384.09;4980591;28;1058;-49
2022/11/03 05:36:25;;;;;;;;;;;;;;;26.37;31.24;101383.09;4981452;28;1914;-44
2022/11/03 05:38:50;;;;;;;;;;;;;;;26.35;30.63;101387.78;4973477;28;1200;-44
2022/11/03 05:41:23;;;;;;;;;;;;;;;26.34;30.93;101393.34;4980231;28;1205;-42
2022/11/03 05:43:54;;;;;;;;;;;;;;;26.31;30.89;101394.47;4980482;28;1173;-42
2022/11/03 05:46:19;;;;;;;;;;;;;;;26.59;30.86;101396.97;4980156;28;1122;-41
2022/11/03 05:48:45;;;;;;;;;;;;;;;26.46;31.13;101396.59;4980692;28;1145;-42
2022/11/03 05:51:19;;;;;;;;;;;;;;;26.51;31.10;101400.47;4979822;28;1867;-40
2022/11/03 05:53:45;;;;;;;;;;;;;;;26.76;31.08;101400.56;4980258;28;1106;-43
2022/11/03 05:56:17;;;;;;;;;;;;;;;26.68;31.43;101402.38;4962672;28;1899;-43
2022/11/03 05:58:43;;;;;;;;;;;;;;;26.76;31.38;101402.41;4979800;28;1145;-41
2022/11/03 06:01:14;;;;;;;;;;;;;;;26.78;31.06;101406.66;4985724;28;1209;-42
2022/11/03 06:03:39;;;;;;;;;;;;;;;26.53;30.00;101401.19;4986503;28;1081;-45
2022/11/03 06:06:14;;;;;;;;;;;;;;;26.85;30.40;101409.53;4979350;28;1169;-41
2022/11/03 06:08:39;;;;;;;;;;;;;;;26.86;30.98;101411.22;4979811;28;1164;-45
2022/11/03 06:11:04;;;;;;;;;;;;;;;26.95;30.71;101420.19;4979484;28;1062;-44
2022/11/03 06:13:32;;;;;;;;;;;;;;;26.90;30.94;101423.38;4970164;28;1201;-43
2022/11/03 06:15:59;;;;;;;;;;;;;;;27.09;30.66;101420.56;4982428;28;1902;-45
2022/11/03 06:18:25;;;;;;;;;;;;;;;26.87;30.86;101420.16;4962035;28;1288;-42
2022/11/03 06:20:51;;;;;;;;;;;;;;;26.83;30.78;101421.47;4978929;28;1879;-42
2022/11/03 06:23:17;;;;;;;;;;;;;;;26.86;31.23;101423.88;4979078;28;1522;-45
2022/11/03 06:25:42;;;;;;;;;;;;;;;26.85;30.93;101428.44;4988209;28;1114;-45
2022/11/03 06:28:10;;;;;;;;;;;;;;;27.04;31.42;101431.88;4962944;28;1106;-43
2022/11/03 06:30:37;;;;;;;;;;;;;;;27.06;31.29;101424.44;4962148;28;1248;-41
2022/11/03 06:33:06;;;;;;;;;;;;;;;27.23;31.10;101435.25;4979101;28;1129;-43
2022/11/03 06:35:31;;;;;;;;;;;;;;;27.34;30.89;101439.50;4961673;28;1914;-43
2022/11/03 06:37:56;;;;;;;;;;;;;;;27.36;30.57;101440.19;4968927;28;1094;-42
2022/11/03 06:40:25;;;;;;;;;;;;;;;27.48;31.25;101444.25;4978868;28;1146;-38
2022/11/03 06:42:53;;;;;;;;;;;;;;;27.35;31.01;101441.19;4978853;28;1102;-42
2022/11/03 06:45:19;;;;;;;;;;;;;;;27.48;31.57;101444.25;4960211;28;1209;-42
2022/11/03 06:47:44;;;;;;;;;;;;;;;27.28;31.47;101448.28;4969188;28;1399;-40
2022/11/03 06:50:19;;;;;;;;;;;;;;;26.74;30.86;101440.34;4989774;28;1192;-41
2022/11/03 06:52:46;;;;;;;;;;;;;;;26.47;31.48;101444.13;4961748;28;2602;-41
2022/11/03 06:55:21;;;;;;;;;;;;;;;26.47;31.62;101439.59;4961283;28;1942;-42
2022/11/03 06:57:46;;;;;;;;;;;;;;;26.26;31.22;101442.66;4965898;28;1282;-43
2022/11/03 07:00:18;;;;;;;;;;;;;;;25.75;30.96;101437.94;4972218;28;975;-40
2022/11/03 07:02:46;;;;;;;;;;;;;;;25.84;31.10;101436.19;4983604;28;907;-43
2022/11/03 07:05:24;;;;;;;;;;;;;;;25.74;31.58;101437.09;4978937;28;1204;-41
2022/11/03 07:07:53;;;;;;;;;;;;;;;26.03;31.77;101441.34;4978522;28;1206;-41
2022/11/03 07:10:18;;;;;;;;;;;;;;;26.29;31.29;101443.19;4977872;28;1294;-44
2022/11/03 07:12:43;;;;;;;;;;;;;;;26.38;30.89;101435.16;4960830;28;1111;-37
2022/11/03 07:15:16;;;;;;;;;;;;;;;26.69;30.30;101448.13;4976803;28;1906;-41
2022/11/03 07:17:41;;;;;;;;;;;;;;;26.81;30.42;101445.94;4956601;28;1026;-41
2022/11/03 07:20:12;;;;;;;;;;;;;;;26.62;30.82;101450.63;4974712;28;1386;-45
2022/11/03 07:22:37;;;;;;;;;;;;;;;26.82;30.43;101450.34;4971634;28;1804;-41
2022/11/03 07:25:04;;;;;;;;;;;;;;;27.04;30.03;101449.94;4956532;28;1209;-48
2022/11/03 07:27:30;;;;;;;;;;;;;;;27.12;30.07;101452.66;4960570;28;1344;-43
2022/11/03 07:30:16;;;;;;;;;;;;;;;27.37;30.06;101441.88;4958677;28;1317;-43
2022/11/03 07:32:41;;;;;;;;;;;;;;;27.51;30.16;101452.00;4976624;28;1583;-45
2022/11/03 07:35:15;;;;;;;;;;;;;;;27.36;32.03;101454.53;4955062;28;1180;-44
2022/11/03 07:37:41;;;;;;;;;;;;;;;27.31;31.24;101461.47;4978791;28;940;-40
2022/11/03 07:40:11;;;;;;;;;;;;;;;27.60;30.68;101458.25;4977027;28;1118;-41
2022/11/03 07:42:36;;;;;;;;;;;;;;;27.55;30.77;101462.47;4972150;28;980;-42
2022/11/03 07:45:01;;;;;;;;;;;;;;;27.47;30.91;101453.38;4977591;28;1188;-47
2022/11/03 07:47:27;;;;;;;;;;;;;;;27.31;30.51;101453.34;4957108;28;1173;-41
2022/11/03 07:49:55;;;;;;;;;;;;;;;27.61;30.03;101449.13;4964049;28;1024;-46
2022/11/03 07:52:24;;;;;;;;;;;;;;;27.78;30.38;101451.03;4977029;28;2586;-45
2022/11/03 07:54:51;;;;;;;;;;;;;;;27.49;30.23;101448.63;4959915;28;1151;-45
2022/11/03 07:57:25;;;;;;;;;;;;;;;27.58;29.64;101446.75;4975438;28;1957;-43
2022/11/03 07:59:51;;;;;;;;;;;;;;;27.86;29.54;101451.84;4982573;28;1089;-45
2022/11/03 08:02:32;;;;;;;;;;;;;;;27.86;30.52;101443.72;4957402;28;1257;-45
2022/11/03 08:04:58;;;;;;;;;;;;;;;27.77;30.62;101454.72;4958613;28;1036;-46
2022/11/03 08:07:23;;;;;;;;;;;;;;;27.84;30.25;101456.56;4977224;28;1133;-47
2022/11/03 08:09:48;;;;;;;;;;;;;;;27.68;30.46;101454.72;4976112;28;1289;-46
2022/11/03 08:12:14;;;;;;;;;;;;;;;28.05;30.32;101448.94;4969014;28;1643;-44
2022/11/03 08:14:39;;;;;;;;;;;;;;;28.29;30.48;101463.44;4973886;28;1027;-46
2022/11/03 08:17:04;;;;;;;;;;;;;;;27.67;30.20;101446.75;4975238;28;2004;-47
2022/11/03 08:19:30;;;;;;;;;;;;;;;27.38;30.03;101460.63;4976293;28;1189;-46
2022/11/03 08:21:55;;;;;;;;;;;;;;;27.63;29.99;101459.78;4973357;28;1804;-44
2022/11/03 08:24:20;;;;;;;;;;;;;;;28.05;30.31;101457.03;4963559;28;1131;-46
2022/11/03 08:26:45;;;;;;;;;;;;;;;28.22;30.07;101460.56;4982920;28;1195;-46
2022/11/03 08:29:11;;;;;;;;;;;;;;;28.37;30.05;101460.72;4974155;28;1292;-42
2022/11/03 08:31:36;;;;;;;;;;;;;;;28.22;29.89;101464.13;4963263;28;1327;-45
2022/11/03 08:34:01;;;;;;;;;;;;;;;28.41;29.99;101459.34;4959839;28;1304;-44
2022/11/03 08:36:27;;;;;;;;;;;;;;;28.51;29.76;101452.91;4958132;28;1962;-48
2022/11/03 08:38:52;;;;;;;;;;;;;;;28.65;29.95;101448.59;4959167;28;1169;-44
2022/11/03 08:41:17;;;;;;;;;;;;;;;28.71;29.68;101450.63;4962887;28;1521;-44
2022/11/03 08:43:42;;;;;;;;;;;;;;;28.87;29.51;101444.25;4961128;28;1110;-46
2022/11/03 08:46:08;;;;;;;;;;;;;;;28.81;30.07;101440.38;4957253;28;1159;-45
2022/11/03 08:48:33;;;;;;;;;;;;;;;28.60;29.68;101441.00;4976857;28;1146;-45
2022/11/03 08:50:58;;;;;;;;;;;;;;;28.84;29.89;101437.31;4979831;28;1843;-48
2022/11/03 08:53:24;;;;;;;;;;;;;;;28.96;29.56;101445.06;4976914;28;1170;-48
2022/11/03 08:55:50;;;;;;;;;;;;;;;28.94;29.75;101434.41;4974936;28;1948;-47
2022/11/03 08:58:15;;;;;;;;;;;;;;;29.07;29.57;101441.13;4976401;28;1371;-45
2022/11/03 09:00:40;;;;;;;;;;;;;;;29.24;29.51;101433.72;4975980;28;1212;-48
2022/11/03 09:03:06;;;;;;;;;;;;;;;28.84;30.00;101431.91;4982489;28;868;-44
2022/11/03 09:05:31;;;;;;;;;;;;;;;29.06;29.53;101428.59;4980759;28;1169;-48
2022/11/03 09:07:56;;;;;;;;;;;;;;;29.13;29.84;101428.72;4980274;28;1391;-44
2022/11/03 09:10:22;;;;;;;;;;;;;;;29.35;29.94;101427.03;4978740;28;1200;-44
2022/11/03 09:12:47;;;;;;;;;;;;;;;29.44;30.05;101428.66;4978418;28;999;-45
2022/11/03 09:15:12;;;;;;;;;;;;;;;29.50;29.28;101434.34;4980403;28;839;-50
2022/11/03 09:17:37;;;;;;;;;;;;;;;29.42;30.06;101422.56;4980419;28;1981;-42
2022/11/03 09:20:03;;;;;;;;;;;;;;;29.17;29.31;101430.03;4980067;28;1196;-42
2022/11/03 09:22:29;;;;;;;;;;;;;;;29.39;28.01;101422.94;4979915;28;2590;-43
2022/11/03 09:24:54;;;;;;;;;;;;;;;29.75;27.66;101421.44;4979123;28;1528;-45
2022/11/03 09:27:19;;;;;;;;;;;;;;;29.77;28.83;101418.53;4973446;28;1448;-54
2022/11/03 09:29:45;;;;;;;;;;;;;;;29.61;29.57;101414.97;4982036;28;1133;-50
2022/11/03 09:32:10;;;;;;;;;;;;;;;29.14;28.84;101403.31;4980678;28;1129;-51
2022/11/03 09:34:36;;;;;;;;;;;;;;;29.52;28.86;101411.47;4978677;28;1419;-49
2022/11/03 09:37:01;;;;;;;;;;;;;;;29.54;29.29;101403.16;4978034;28;1902;-46
2022/11/03 09:39:27;;;;;;;;;;;;;;;29.25;29.00;101400.16;4980975;28;1008;-45
2022/11/03 09:41:52;;;;;;;;;;;;;;;29.15;28.95;101405.84;4969492;28;1162;-45
2022/11/03 09:44:18;;;;;;;;;;;;;;;29.80;27.56;101401.91;4974731;28;1074;-47
2022/11/03 09:46:43;;;;;;;;;;;;;;;30.26;26.90;101395.47;4977173;28;1477;-48
2022/11/03 09:49:11;;;;;;;;;;;;;;;30.30;26.62;101394.06;4979274;28;1227;-47
2022/11/03 09:51:36;;;;;;;;;;;;;;;30.42;26.47;101390.88;4977758;28;1759;-48
2022/11/03 09:54:02;;;;;;;;;;;;;;;30.26;26.58;101400.88;4977438;28;1578;-47
2022/11/03 09:56:28;;;;;;;;;;;;;;;30.52;26.72;101393.28;4959768;28;1903;-48
2022/11/03 09:58:53;;;;;;;;;;;;;;;30.60;26.72;101393.16;4960026;28;1059;-46
2022/11/03 10:01:19;;;;;;;;;;;;;;;30.68;27.48;101392.19;4977728;28;1114;-48
2022/11/03 10:03:45;;;;;;;;;;;;;;;30.73;27.54;101378.06;4989402;28;1101;-44
2022/11/03 10:06:10;;;;;;;;;;;;;;;30.93;27.42;101386.41;4964624;28;958;-46
2022/11/03 10:08:36;;;;;;;;;;;;;;;31.23;26.61;101382.75;4976499;28;1158;-43
2022/11/03 10:11:03;;;;;;;;;;;;;;;31.06;26.60;101377.59;4961334;28;924;-44
2022/11/03 10:13:30;;;;;;;;;;;;;;;30.58;27.01;101369.97;4977113;28;1209;-44
2022/11/03 10:16:03;;;;;;;;;;;;;;;30.26;27.50;101378.34;4962800;28;1906;-43
2022/11/03 10:18:29;;;;;;;;;;;;;;;30.35;26.68;101377.22;4974058;28;1485;-41
2022/11/03 10:20:54;;;;;;;;;;;;;;;29.91;26.75;101374.31;4964026;28;2343;-43
2022/11/03 10:23:19;;;;;;;;;;;;;;;30.00;26.59;101369.63;4942426;28;1533;-41
2022/11/03 10:25:45;;;;;;;;;;;;;;;29.76;27.46;101368.88;4978085;28;1153;-42
2022/11/03 10:28:10;;;;;;;;;;;;;;;29.49;27.58;101362.19;4987891;28;1181;-42
2022/11/03 10:30:46;;;;;;;;;;;;;;;29.76;27.71;101358.03;4980383;28;1189;-42
2022/11/03 10:33:30;;;;;;;;;;;;;;;29.80;27.50;101353.94;4989914;28;882;-40
2022/11/03 10:35:56;;;;;;;;;;;;;;;30.02;27.29;101362.16;4978853;28;1973;-42
2022/11/03 10:38:29;;;;;;;;;;;;;;;30.25;27.15;101357.66;4978513;28;1133;-41
2022/11/03 10:40:55;;;;;;;;;;;;;;;30.25;27.23;101361.22;4985475;28;919;-42
2022/11/03 10:43:21;;;;;;;;;;;;;;;29.59;27.73;101354.69;4962239;28;1150;-43
2022/11/03 10:45:48;;;;;;;;;;;;;;;29.78;27.79;101349.75;4978608;28;1157;-42
2022/11/03 10:48:13;;;;;;;;;;;;;;;29.86;27.71;101344.22;4977726;28;993;-41
2022/11/03 10:50:39;;;;;;;;;;;;;;;29.97;27.54;101347.47;4976581;28;2363;-41
2022/11/03 10:53:04;;;;;;;;;;;;;;;29.90;27.71;101344.66;4961801;28;1131;-42
2022/11/03 10:55:30;;;;;;;;;;;;;;;29.67;27.93;101332.06;4978170;28;1966;-41
2022/11/03 10:57:56;;;;;;;;;;;;;;;29.87;27.77;101335.06;4975763;28;1551;-43
2022/11/03 11:00:23;;;;;;;;;;;;;;;29.13;27.98;101331.22;4956891;28;1023;-41
2022/11/03 11:02:48;;;;;;;;;;;;;;;29.30;27.13;101326.47;4978945;28;1122;-41
2022/11/03 11:05:18;;;;;;;;;;;;;;;29.63;26.91;101317.19;4986161;28;1208;-43
2022/11/03 11:07:44;;;;;;;;;;;;;;;29.36;27.35;101319.47;4975989;28;1161;-42
2022/11/03 11:10:12;;;;;;;;;;;;;;;29.06;27.27;101306.72;4973479;28;1327;-42
2022/11/03 11:12:37;;;;;;;;;;;;;;;29.17;27.27;101313.53;4973668;28;1197;-43
2022/11/03 11:15:06;;;;;;;;;;;;;;;29.01;27.59;101307.22;4977927;28;1567;-43
2022/11/03 11:17:43;;;;;;;;;;;;;;;28.71;28.00;101313.38;4978021;28;1902;-43
2022/11/03 11:20:21;;;;;;;;;;;;;;;28.74;27.95;101306.75;4977192;28;1165;-43
2022/11/03 11:22:47;;;;;;;;;;;;;;;28.38;27.67;101302.75;4977489;28;2765;-43
2022/11/03 11:25:12;;;;;;;;;;;;;;;28.83;27.46;101299.41;4976652;28;1320;-42
2022/11/03 11:27:38;;;;;;;;;;;;;;;29.08;27.99;101297.38;4983070;28;999;-47
2022/11/03 11:30:03;;;;;;;;;;;;;;;28.89;27.83;101297.84;4978503;28;1066;-43
2022/11/03 11:32:52;;;;;;;;;;;;;;;29.27;27.41;101297.03;4985627;28;1130;-42
2022/11/03 11:35:37;;;;;;;;;;;;;;;29.32;27.09;101291.91;4947165;28;1161;-41
2022/11/03 11:38:22;;;;;;;;;;;;;;;29.79;27.33;101294.47;4983573;28;1952;-42
2022/11/03 11:40:50;;;;;;;;;;;;;;;29.63;27.14;101292.81;4986324;28;918;-45
2022/11/03 11:43:18;;;;;;;;;;;;;;;29.17;27.53;101292.72;4977248;28;1090;-49
2022/11/03 11:46:02;;;;;;;;;;;;;;;29.34;27.72;101285.25;4959914;28;1122;-42
2022/11/03 11:48:27;;;;;;;;;;;;;;;29.02;27.63;101287.28;4976077;28;1409;-43
2022/11/03 11:50:53;;;;;;;;;;;;;;;29.08;27.79;101286.53;4980537;28;2429;-43
2022/11/03 11:53:19;;;;;;;;;;;;;;;29.04;28.09;101287.94;4964771;28;1222;-44
2022/11/03 11:55:45;;;;;;;;;;;;;;;28.92;28.29;101279.38;4960098;28;1963;-42
2022/11/03 11:58:17;;;;;;;;;;;;;;;29.22;28.02;101281.31;4959959;28;880;-42
2022/11/03 12:00:52;;;;;;;;;;;;;;;29.48;27.61;101280.03;4977049;28;1161;-41
2022/11/03 12:03:19;;;;;;;;;;;;;;;29.51;27.84;101270.69;4977856;28;1133;-41
2022/11/03 12:05:44;;;;;;;;;;;;;;;29.36;27.98;101274.25;4961454;28;1209;-43
2022/11/03 12:08:20;;;;;;;;;;;;;;;29.09;27.59;101263.81;4958777;28;1401;-41
2022/11/03 12:10:52;;;;;;;;;;;;;;;29.02;27.86;101275.59;4981273;28;1097;-43
2022/11/03 12:13:33;;;;;;;;;;;;;;;28.94;27.52;101279.19;4975603;28;1271;-41
2022/11/03 12:15:58;;;;;;;;;;;;;;;28.73;28.03;101278.00;4969812;28;1902;-42
2022/11/03 12:18:33;;;;;;;;;;;;;;;28.62;27.84;101273.84;4964346;28;1125;-45
2022/11/03 12:20:58;;;;;;;;;;;;;;;28.65;27.86;101270.78;4964115;28;2278;-45
2022/11/03 12:23:45;;;;;;;;;;;;;;;28.53;28.22;101264.94;4971822;28;1157;-42
2022/11/03 12:26:26;;;;;;;;;;;;;;;28.43;28.55;101276.00;4959033;28;1190;-43
2022/11/03 12:28:51;;;;;;;;;;;;;;;28.41;28.63;101274.50;4967977;28;894;-41
2022/11/03 12:31:16;;;;;;;;;;;;;;;28.65;27.73;101269.94;4967171;28;1457;-41
2022/11/03 12:33:42;;;;;;;;;;;;;;;28.55;27.70;101275.59;4976678;28;1204;-43
2022/11/03 12:36:07;;;;;;;;;;;;;;;28.53;28.17;101270.34;4969722;28;1960;-43
2022/11/03 12:38:32;;;;;;;;;;;;;;;28.59;27.86;101272.34;4976887;28;1220;-44
2022/11/03 12:41:19;;;;;;;;;;;;;;;28.30;28.01;101279.28;4959309;28;1261;-41
2022/11/03 12:43:43;;;;;;;;;;;;;;;28.46;28.08;101272.94;4972563;28;1379;-42
2022/11/03 12:46:08;;;;;;;;;;;;;;;28.50;28.14;101264.47;4971987;28;1027;-39
2022/11/03 12:48:33;;;;;;;;;;;;;;;28.70;27.77;101262.09;4962856;28;1376;-41
2022/11/03 12:50:59;;;;;;;;;;;;;;;28.60;28.36;101260.50;4973188;28;2381;-42
2022/11/03 12:53:24;;;;;;;;;;;;;;;28.55;28.10;101259.34;4976287;28;919;-42
2022/11/03 12:55:49;;;;;;;;;;;;;;;28.34;28.64;101269.78;4973678;28;1899;-42
2022/11/03 12:58:14;;;;;;;;;;;;;;;28.47;28.67;101274.63;4970135;28;1426;-42
2022/11/03 13:00:40;;;;;;;;;;;;;;;28.24;28.44;101263.75;4978817;28;983;-43
2022/11/03 13:03:05;;;;;;;;;;;;;;;28.23;28.67;101265.63;4976042;28;1142;-42
2022/11/03 13:05:30;;;;;;;;;;;;;;;28.12;28.74;101268.72;4961561;28;919;-38
2022/11/03 13:07:56;;;;;;;;;;;;;;;27.98;28.80;101268.44;4976194;28;1181;-40